Terminal Aerodrome Forecast
Issued by NWS

Home | Current Version | Previous Version | Text Only | Print | Product List | Glossary On
Versions: 1 2 3 4 5 6 7 8 9 10 11 12 13 14 15 16 17 18 19 20 21 22 23 24
000
FTUS42 KTBW 261200 AAA
TAFPIE
TAF AMD
KPIE 261256Z 2613/2712 34012G18KT P6SM -RA BKN008 OVC035
      TEMPO 2613/2615 SCT008 BKN015
     FM261500 34017G27KT P6SM VCSH SCT015 BKN035
     FM261800 33016G25KT P6SM FEW040 SCT250
     FM262300 34008KT P6SM FEW250=

USA.gov is the U.S. government's official web portal to all federal, state and local government web resources and services.